Time;durP1;ratioP1;P1;durP2;ratioP2;P2;SDS_P1;SDS_P2;PMS_P1;PMS_P2;Temp;Humidity;BMP_temperature;BMP_pressure;BME280_temperature;BME280_humidity;BME280_pressure;Samples;Min_cycle;Max_cycle;Signal;HPM_P1;HPM_P2
2022/12/22 03:25:53;;;;;;;10.07;9.18;;;;;;;30.07;57.89;100862.28;5065185;28;69509;-38
2022/12/22 03:28:27;;;;;;;10.10;9.15;;;;;;;29.77;58.00;100806.03;5060703;28;67199;-38
2022/12/22 03:31:02;;;;;;;10.80;9.75;;;;;;;30.04;57.61;100843.78;5054753;28;69982;-38
2022/12/22 03:33:34;;;;;;;10.57;9.73;;;;;;;29.91;57.33;100814.09;5062889;27;65384;-37
2022/12/22 03:36:06;;;;;;;9.70;8.63;;;;;;;30.16;57.35;100855.59;5061846;28;69879;-39
2022/12/22 03:38:37;;;;;;;11.30;10.13;;;;;;;30.14;57.33;100844.13;5063512;28;66169;-38
2022/12/22 03:46:28;;;;;;;11.25;9.57;;;;;;;30.20;57.34;100854.13;5058323;28;69986;-39
2022/12/22 03:46:49;;;;;;;9.80;8.90;;;;;;;30.26;57.59;100850.56;5056237;28;69828;-38
2022/12/22 03:49:21;;;;;;;10.60;9.13;;;;;;;30.26;57.14;100847.88;5057747;28;65997;-40
2022/12/22 03:51:53;;;;;;;10.27;9.23;;;;;;;30.26;56.96;100831.63;5057838;28;70847;-38
2022/12/22 03:54:25;;;;;;;11.43;8.85;;;;;;;30.32;57.08;100839.94;5057166;28;65552;-38
2022/12/22 03:56:57;;;;;;;10.52;9.18;;;;;;;30.32;57.07;100829.94;5057731;28;69958;-38
2022/12/22 03:59:28;;;;;;;10.13;9.13;;;;;;;30.34;57.03;100833.25;5054454;28;66544;-38
2022/12/22 04:01:59;;;;;;;10.48;9.52;;;;;;;30.34;57.33;100827.84;5057974;28;69216;-38
2022/12/22 04:04:31;;;;;;;10.20;8.93;;;;;;;30.39;57.57;100835.28;5063011;28;64724;-38
2022/12/22 04:07:03;;;;;;;9.90;9.00;;;;;;;30.35;57.41;100817.84;5058689;28;69648;-38
2022/12/22 04:09:34;;;;;;;10.30;9.25;;;;;;;30.36;57.48;100808.66;5053934;28;64799;-38
2022/12/22 04:14:55;;;;;;;10.00;9.20;;;;;;;30.45;57.09;100807.34;5057292;28;65514;-39
2022/12/22 04:17:26;;;;;;;14.00;9.27;;;;;;;30.47;57.39;100813.38;5050496;28;69082;-39
2022/12/22 04:19:57;;;;;;;9.83;8.63;;;;;;;30.44;56.92;100800.28;5060598;28;65579;-39
2022/12/22 04:22:29;;;;;;;9.48;8.65;;;;;;;30.48;56.59;100802.34;5055681;28;70013;-39
2022/12/22 04:25:00;;;;;;;11.07;9.07;;;;;;;30.53;57.16;100804.38;5054200;28;65167;-38
2022/12/22 04:27:31;;;;;;;10.13;9.33;;;;;;;30.51;57.08;100787.53;5062553;28;69840;-38
2022/12/22 04:30:04;;;;;;;9.60;8.73;;;;;;;30.46;56.77;100776.53;5056355;28;65438;-39
2022/12/22 04:32:35;;;;;;;12.30;9.50;;;;;;;30.60;56.41;100794.34;5060823;28;70109;-38
2022/12/22 04:35:08;;;;;;;12.35;9.52;;;;;;;30.37;56.55;100750.78;5056173;28;66298;-39
2022/12/22 04:37:39;;;;;;;10.52;9.40;;;;;;;30.63;56.58;100780.34;5060009;28;69952;-38
2022/12/22 04:40:10;;;;;;;10.57;8.67;;;;;;;30.62;56.61;100775.16;5056792;28;66158;-38
2022/12/22 04:42:42;;;;;;;9.43;8.52;;;;;;;30.64;56.74;100781.19;5062329;28;69385;-39
2022/12/22 04:45:13;;;;;;;9.30;8.60;;;;;;;30.62;56.70;100772.44;5057813;28;66220;-38
2022/12/22 04:47:44;;;;;;;9.18;8.40;;;;;;;30.69;56.51;100768.63;5043029;28;70012;-38
2022/12/22 04:50:16;;;;;;;9.13;8.20;;;;;;;30.71;56.42;100757.59;5049282;28;65306;-38
2022/12/22 04:52:47;;;;;;;9.80;8.90;;;;;;;30.71;56.36;100758.41;5059701;28;70269;-39
2022/12/22 04:55:19;;;;;;;13.03;8.83;;;;;;;30.73;56.39;100750.91;5046672;28;65558;-38
2022/12/22 04:57:50;;;;;;;9.70;8.80;;;;;;;30.73;56.14;100745.50;5057754;28;70288;-39
2022/12/22 05:00:21;;;;;;;9.60;8.80;;;;;;;30.66;56.04;100733.06;5056674;28;66005;-40
2022/12/22 05:02:53;;;;;;;11.18;10.13;;;;;;;30.77;56.15;100739.63;5059520;28;70121;-39
2022/12/22 05:05:24;;;;;;;10.18;9.18;;;;;;;30.76;56.07;100735.25;5058939;28;66538;-39
2022/12/22 05:07:56;;;;;;;10.27;9.38;;;;;;;30.78;55.96;100735.84;5056597;28;70548;-38
2022/12/22 05:10:27;;;;;;;9.87;8.87;;;;;;;30.80;56.31;100722.97;5058320;28;66409;-38
2022/12/22 05:12:58;;;;;;;9.90;8.73;;;;;;;30.81;56.19;100730.03;5055930;28;69518;-39
2022/12/22 05:15:32;;;;;;;10.77;9.20;;;;;;;30.78;56.50;100709.59;5055824;28;65533;-37
2022/12/22 05:18:04;;;;;;;11.65;9.10;;;;;;;30.80;55.85;100709.41;5056424;28;69396;-39
2022/12/22 05:20:35;;;;;;;10.68;8.93;;;;;;;30.85;56.44;100715.00;5054211;28;66376;-38
2022/12/22 05:23:07;;;;;;;9.68;8.77;;;;;;;30.85;56.46;100709.59;5058885;28;69228;-39
2022/12/22 05:25:38;;;;;;;10.87;9.83;;;;;;;30.80;56.02;100690.47;5058380;28;66414;-39
2022/12/22 05:28:09;;;;;;;9.85;8.88;;;;;;;30.86;56.10;100694.97;5057078;28;69122;-39
2022/12/22 05:30:41;;;;;;;9.83;9.13;;;;;;;30.87;56.45;100694.75;5055568;28;66050;-38
2022/12/22 05:33:12;;;;;;;9.20;8.50;;;;;;;30.83;56.30;100679.19;5054268;28;69987;-39
2022/12/22 05:35:43;;;;;;;9.57;8.33;;;;;;;30.88;56.63;100677.44;5055371;28;65921;-38
2022/12/22 05:38:14;;;;;;;9.45;8.63;;;;;;;30.89;56.28;100672.84;5053772;28;69199;-38
2022/12/22 05:40:46;;;;;;;8.87;8.27;;;;;;;30.89;56.26;100670.16;5055984;28;66541;-37
2022/12/22 05:43:17;;;;;;;10.23;9.10;;;;;;;30.88;56.47;100671.22;5051433;28;68745;-39
2022/12/22 05:45:48;;;;;;;12.87;8.73;;;;;;;30.91;56.31;100668.06;5056089;28;66558;-37
2022/12/22 05:48:20;;;;;;;13.20;9.95;;;;;;;30.92;56.07;100666.97;5053300;28;69933;-38
2022/12/22 05:50:59;;;;;;;8.98;8.27;;;;;;;30.97;56.36;100658.19;5051669;28;66367;-38
2022/12/22 05:53:31;;;;;;;10.40;9.30;;;;;;;30.97;55.92;100653.59;5054997;28;68319;-39
2022/12/22 05:56:02;;;;;;;9.63;8.73;;;;;;;30.92;56.21;100635.34;5055326;28;66050;-37
2022/12/22 05:58:37;;;;;;;13.35;9.35;;;;;;;30.86;55.88;100611.03;5053884;28;69286;-38
2022/12/22 06:01:08;;;;;;;10.15;8.93;;;;;;;31.03;56.05;100638.31;5053719;28;66470;-38
2022/12/22 06:03:40;;;;;;;10.35;8.10;;;;;;;30.99;55.77;100629.81;5053543;28;69583;-37
2022/12/22 06:06:11;;;;;;;9.23;8.32;;;;;;;31.04;55.92;100626.44;5053727;28;65305;-38
2022/12/22 06:08:42;;;;;;;10.13;9.10;;;;;;;31.01;55.55;100611.47;5049626;28;70590;-39
2022/12/22 06:11:17;;;;;;;9.57;8.63;;;;;;;31.05;55.97;100615.38;5072084;27;65242;-39
2022/12/22 06:13:48;;;;;;;9.48;8.52;;;;;;;31.07;56.06;100607.84;5051255;28;69500;-38
2022/12/22 06:16:23;;;;;;;10.90;8.48;;;;;;;31.10;56.01;100599.25;5052746;28;65425;-40
2022/12/22 06:18:54;;;;;;;9.48;8.60;;;;;;;31.10;56.03;100599.25;5053349;28;70081;-39
2022/12/22 06:21:26;;;;;;;9.23;8.47;;;;;;;31.11;55.78;100595.47;5059192;28;65186;-38
2022/12/22 06:23:58;;;;;;;8.97;8.27;;;;;;;31.04;55.70;100580.41;5051534;28;69956;-38
2022/12/22 06:26:29;;;;;;;8.63;7.90;;;;;;;31.16;55.81;100592.91;5053374;28;65488;-37
2022/12/22 06:29:00;;;;;;;9.23;8.48;;;;;;;31.16;55.34;100586.69;5057945;28;69546;-38
2022/12/22 06:31:32;;;;;;;8.73;7.83;;;;;;;31.17;55.66;100582.91;5046171;28;66082;-38
2022/12/22 06:34:03;;;;;;;8.95;8.20;;;;;;;31.21;56.03;100583.28;5052891;28;68794;-39
2022/12/22 06:36:35;;;;;;;8.98;8.18;;;;;;;31.09;55.41;100565.09;5060627;28;65427;-39
2022/12/22 06:39:06;;;;;;;10.02;8.05;;;;;;;31.24;55.04;100577.41;5054165;28;70554;-39
2022/12/22 06:44:27;;;;;;;8.50;7.70;;;;;;;31.24;55.51;100561.16;5051631;28;70428;-39
2022/12/22 06:46:59;;;;;;;7.88;7.28;;;;;;;31.25;55.52;100568.22;5058431;28;66485;-40
2022/12/22 06:49:30;;;;;;;8.23;7.53;;;;;;;31.18;55.42;100549.34;5049361;28;70075;-38
2022/12/22 06:52:01;;;;;;;8.67;7.77;;;;;;;31.27;55.46;100560.69;5058251;28;65960;-38
2022/12/22 06:54:33;;;;;;;10.98;8.35;;;;;;;31.30;55.23;100565.66;5041579;28;70335;-38
2022/12/22 06:57:04;;;;;;;11.10;8.20;;;;;;;31.25;55.29;100557.38;5049894;28;65579;-40
2022/12/22 06:59:35;;;;;;;7.97;7.43;;;;;;;30.93;55.23;100506.16;5058509;28;69925;-38
2022/12/22 07:02:06;;;;;;;9.67;8.77;;;;;;;31.32;55.16;100560.81;5051668;28;66208;-39
2022/12/22 07:04:38;;;;;;;12.20;8.27;;;;;;;31.33;55.05;100559.75;5054650;28;70413;-38
2022/12/22 07:07:09;;;;;;;8.87;7.93;;;;;;;31.34;55.13;100561.41;5052285;28;65317;-38
2022/12/22 07:09:40;;;;;;;9.02;8.05;;;;;;;31.36;54.67;100556.63;5059299;28;69064;-38
2022/12/22 07:12:12;;;;;;;8.67;7.33;;;;;;;31.39;55.26;100543.41;5053488;28;66797;-38
2022/12/22 07:14:43;;;;;;;8.65;7.78;;;;;;;31.41;54.98;100548.63;5052455;28;69528;-39
2022/12/22 07:17:15;;;;;;;8.97;8.27;;;;;;;31.35;55.17;100527.84;5047027;28;65143;-38
2022/12/22 07:19:46;;;;;;;7.78;7.07;;;;;;;31.41;54.58;100545.91;5055545;28;70555;-38
2022/12/22 07:22:17;;;;;;;10.17;7.97;;;;;;;31.46;55.22;100537.91;5054147;28;66286;-38
2022/12/22 07:24:58;;;;;;;11.65;7.55;;;;;;;31.49;54.63;100540.16;5052616;28;70404;-38
2022/12/22 07:27:30;;;;;;;9.23;7.90;;;;;;;31.52;54.87;100536.16;5050399;27;66758;-37
2022/12/22 07:30:01;;;;;;;9.27;8.15;;;;;;;31.51;54.85;100524.50;5045718;28;69854;-38
2022/12/22 07:32:32;;;;;;;14.77;8.65;;;;;;;31.55;54.89;100528.38;5057705;28;65346;-37
2022/12/22 07:35:04;;;;;;;8.90;8.10;;;;;;;31.54;54.68;100513.19;5053778;28;70193;-38
2022/12/22 07:37:35;;;;;;;11.95;7.93;;;;;;;31.60;54.75;100525.78;5051209;28;65703;-38
2022/12/22 07:40:07;;;;;;;10.30;7.63;;;;;;;31.64;54.71;100528.03;5055362;28;70859;-37
2022/12/22 07:42:44;;;;;;;;;;;;;;;31.38;55.11;100530.13;5054302;28;66557;-38
2022/12/22 07:45:18;;;;;;;9.07;7.72;;;;;;;31.67;54.54;100524.84;5056586;28;70323;-37
2022/12/22 07:47:50;;;;;;;8.48;7.82;;;;;;;31.69;54.48;100518.13;5063949;28;65921;-38
2022/12/22 07:50:24;;;;;;;8.18;7.30;;;;;;;31.72;54.41;100519.56;5048862;28;70106;-38
2022/12/22 07:52:57;;;;;;;8.50;7.70;;;;;;;31.74;54.43;100523.69;5056455;28;65739;-38
2022/12/22 07:55:31;;;;;;;10.82;8.32;;;;;;;31.68;54.39;100512.94;5056818;28;70046;-38
2022/12/22 07:58:02;;;;;;;9.52;8.15;;;;;;;31.73;54.31;100518.47;5054631;28;66631;-38
2022/12/22 08:00:33;;;;;;;12.63;7.47;;;;;;;31.76;54.24;100526.16;5062838;28;70019;-38
2022/12/22 08:03:05;;;;;;;8.67;7.83;;;;;;;31.80;54.29;100521.91;5058213;28;65938;-38
2022/12/22 08:05:37;;;;;;;10.57;7.85;;;;;;;31.85;54.08;100535.59;5048588;28;69874;-38
2022/12/22 08:08:09;;;;;;;15.43;8.02;;;;;;;31.86;54.44;100520.97;5052988;28;66278;-38
2022/12/22 08:10:40;;;;;;;10.32;7.78;;;;;;;31.87;54.30;100528.03;5054541;28;70312;-38
2022/12/22 08:13:11;;;;;;;8.20;7.50;;;;;;;31.90;54.14;100530.31;5053205;28;65589;-37
2022/12/22 08:15:43;;;;;;;10.00;8.43;;;;;;;31.93;54.04;100527.16;5057594;28;69897;-38
2022/12/22 08:18:14;;;;;;;14.30;8.43;;;;;;;31.91;54.04;100523.84;5056973;28;65609;-37
2022/12/22 08:20:50;;;;;;;12.82;7.88;;;;;;;31.77;54.00;100490.66;5058706;28;69951;-38
2022/12/22 08:23:22;;;;;;;8.85;7.75;;;;;;;32.04;54.00;100539.88;5058260;28;66161;-38
2022/12/22 08:26:08;;;;;;;8.98;8.25;;;;;;;31.69;53.29;100480.16;5058466;28;69822;-37
2022/12/22 08:28:47;;;;;;;8.18;7.45;;;;;;;31.78;53.40;100484.16;5055965;28;66303;-37
2022/12/22 08:31:19;;;;;;;8.43;7.72;;;;;;;32.13;53.59;100543.06;5059085;28;70684;-37
2022/12/22 08:33:52;;;;;;;9.05;7.90;;;;;;;32.16;53.66;100541.75;5061367;28;66669;-38
2022/12/22 08:36:24;;;;;;;8.30;7.22;;;;;;;32.17;53.47;100529.84;5051800;28;70882;-38
2022/12/22 08:38:56;;;;;;;7.78;7.28;;;;;;;32.20;53.28;100534.78;5056292;28;65347;-38
2022/12/22 08:44:23;;;;;;;7.88;6.65;;;;;;;32.25;53.25;100541.16;5048936;28;65939;-39
2022/12/22 08:46:56;;;;;;;7.75;7.05;;;;;;;32.25;53.16;100534.91;5049271;28;70109;-38
2022/12/22 08:49:27;;;;;;;15.05;7.45;;;;;;;32.31;53.08;100536.66;5054978;28;65515;-38
2022/12/22 08:51:59;;;;;;;7.93;7.27;;;;;;;32.32;53.19;100534.75;5045141;28;70075;-38
2022/12/22 08:54:31;;;;;;;11.95;8.00;;;;;;;32.36;52.95;100550.34;5059543;28;66102;-38
2022/12/22 08:57:03;;;;;;;9.88;7.65;;;;;;;32.36;52.76;100544.91;5043308;28;70360;-38
2022/12/22 08:59:34;;;;;;;9.00;7.22;;;;;;;32.40;52.93;100548.81;5052548;28;66014;-38
2022/12/22 09:02:06;;;;;;;7.68;6.50;;;;;;;32.44;52.79;100552.69;5053153;28;70133;-39
2022/12/22 09:04:37;;;;;;;11.32;7.05;;;;;;;32.44;52.77;100555.41;5059323;28;66527;-39
2022/12/22 09:07:09;;;;;;;11.38;6.60;;;;;;;32.46;52.47;100558.75;5045057;28;68983;-39
2022/12/22 09:09:41;;;;;;;6.97;6.35;;;;;;;32.49;52.54;100560.16;5053569;28;66274;-41
2022/12/22 09:12:12;;;;;;;6.97;6.30;;;;;;;32.51;52.37;100562.63;5056019;28;70620;-37
2022/12/22 09:14:43;;;;;;;7.38;6.65;;;;;;;32.49;52.26;100574.56;5060723;28;65400;-38
2022/12/22 09:17:15;;;;;;;13.57;7.38;;;;;;;32.40;52.48;100565.09;5054777;28;69049;-40
2022/12/22 09:19:46;;;;;;;8.00;7.30;;;;;;;32.33;53.72;100577.97;5055102;28;66079;-39
2022/12/22 09:22:17;;;;;;;8.07;6.80;;;;;;;32.25;54.27;100579.16;5058499;28;69995;-39
2022/12/22 09:24:57;;;;;;;10.18;7.40;;;;;;;32.18;54.99;100577.59;5057191;28;65860;-38
2022/12/22 09:27:30;;;;;;;9.35;6.80;;;;;;;31.82;55.16;100522.50;5048887;28;69733;-38
2022/12/22 09:30:01;;;;;;;10.90;7.82;;;;;;;32.10;55.66;100580.72;5050988;28;66250;-37
2022/12/22 09:32:32;;;;;;;10.43;7.10;;;;;;;32.08;55.90;100577.41;5052331;28;70088;-37
2022/12/22 09:35:04;;;;;;;8.45;7.47;;;;;;;32.04;56.12;100577.88;5055566;28;66024;-38
2022/12/22 09:37:35;;;;;;;8.63;7.70;;;;;;;32.00;56.20;100571.25;5049269;28;69889;-38
2022/12/22 09:40:07;;;;;;;7.93;7.22;;;;;;;32.03;56.48;100587.03;5058597;28;66344;-39
2022/12/22 09:42:38;;;;;;;8.45;7.18;;;;;;;32.02;56.79;100593.53;5052523;28;70147;-38
2022/12/22 09:45:19;;;;;;;8.27;7.57;;;;;;;31.75;56.57;100547.03;5054217;28;66254;-38
2022/12/22 09:47:52;;;;;;;12.07;7.40;;;;;;;32.04;56.60;100599.56;5056925;28;70227;-38
2022/12/22 09:50:26;;;;;;;7.90;6.63;;;;;;;31.77;56.52;100544.09;5054433;28;65867;-38
2022/12/22 09:53:02;;;;;;;8.13;6.50;;;;;;;32.03;56.58;100589.75;5055394;28;69977;-37
2022/12/22 09:55:42;;;;;;;9.88;7.22;;;;;;;32.00;56.77;100598.38;5055168;28;66193;-37
2022/12/22 09:58:31;;;;;;;7.20;6.65;;;;;;;31.64;57.25;100552.44;5067988;27;69892;-38
2022/12/22 10:01:25;;;;;;;8.88;7.10;;;;;;;32.02;57.02;100607.13;5051050;28;66372;-39
2022/12/22 10:04:14;;;;;;;9.63;6.43;;;;;;;32.00;56.93;100608.41;5053007;28;69585;-38
2022/12/22 10:07:06;;;;;;;10.57;6.70;;;;;;;31.95;57.23;100613.72;5052269;28;65312;-38
2022/12/22 10:09:37;;;;;;;13.70;7.20;;;;;;;31.93;57.31;100611.25;5051066;28;70450;-38
2022/12/22 10:12:25;;;;;;;11.10;7.90;;;;;;;31.87;57.42;100598.56;5052298;28;65577;-37
2022/12/22 10:14:57;;;;;;;7.57;6.95;;;;;;;31.95;57.42;100611.81;5053185;28;70435;-38
2022/12/22 10:17:33;;;;;;;8.85;6.43;;;;;;;31.66;57.00;100563.88;5053547;28;66761;-37
2022/12/22 10:20:25;;;;;;;9.00;6.95;;;;;;;31.59;57.53;100569.38;5049157;28;69528;-39
2022/12/22 10:23:28;;;;;;;7.72;6.95;;;;;;;31.87;57.88;100625.69;5056187;28;66663;-39
2022/12/22 10:26:07;;;;;;;7.45;6.72;;;;;;;31.96;57.90;100624.34;5051635;28;70205;-37
2022/12/22 10:29:18;;;;;;;8.40;7.60;;;;;;;31.84;58.39;100626.16;5055162;28;65301;-38
2022/12/22 10:32:23;;;;;;;8.48;7.57;;;;;;;31.63;58.38;100580.63;5055526;28;69898;-38
2022/12/22 10:35:01;;;;;;;13.85;7.15;;;;;;;31.98;58.74;100643.94;5052513;28;65443;-38
2022/12/22 10:37:39;;;;;;;16.80;8.40;;;;;;;31.66;58.61;100580.97;5055846;28;69774;-36
2022/12/22 10:40:22;;;;;;;10.48;7.07;;;;;;;31.65;58.71;100578.47;5047585;28;66836;-38
2022/12/22 10:42:56;;;;;;;10.40;8.02;;;;;;;31.72;58.57;100606.34;5054624;28;69939;-37
2022/12/22 10:45:27;;;;;;;12.82;7.78;;;;;;;31.98;58.78;100648.50;5051631;28;66305;-37
2022/12/22 10:48:00;;;;;;;16.27;8.60;;;;;;;31.98;59.08;100654.78;5051471;28;69504;-36
2022/12/22 10:50:32;;;;;;;22.92;9.27;;;;;;;31.99;58.40;100656.41;5050601;28;65232;-37
2022/12/22 10:53:04;;;;;;;21.10;9.38;;;;;;;32.01;57.26;100657.03;5045110;28;70202;-37
2022/12/22 10:55:37;;;;;;;19.25;8.88;;;;;;;32.10;57.44;100670.25;5055858;28;66699;-36
2022/12/22 10:58:20;;;;;;;15.63;8.57;;;;;;;31.76;57.10;100607.50;5053467;28;69505;-36
2022/12/22 11:01:03;;;;;;;12.20;9.57;;;;;;;31.68;57.19;100607.84;5044618;28;66013;-37
2022/12/22 11:03:35;;;;;;;16.15;9.40;;;;;;;32.18;57.39;100675.31;5046131;28;69684;-37
2022/12/22 11:06:12;;;;;;;;;;;;;;;31.93;57.71;100689.06;5057198;28;66699;-36
2022/12/22 11:08:44;;;;;;;15.32;9.60;;;;;;;32.16;57.23;100680.16;5047357;28;70383;-37
2022/12/22 11:11:38;;;;;;;12.85;9.57;;;;;;;32.15;57.33;100687.47;5052532;28;66311;-38
2022/12/22 11:14:48;;;;;;;13.40;10.10;;;;;;;32.06;57.39;100688.84;5055373;28;70512;-37
2022/12/22 11:17:31;;;;;;;17.40;10.95;;;;;;;32.12;57.45;100697.97;5055133;28;66055;-37
2022/12/22 11:20:36;;;;;;;15.05;10.40;;;;;;;31.49;57.53;100597.09;5056911;28;70185;-38
2022/12/22 11:23:38;;;;;;;15.50;11.90;;;;;;;32.09;57.35;100715.53;5074539;27;66740;-37
2022/12/22 11:26:39;;;;;;;20.63;10.88;;;;;;;32.12;56.85;100719.66;5050635;28;69235;-37
2022/12/22 11:29:26;;;;;;;20.27;12.25;;;;;;;31.71;57.04;100669.78;5046423;28;66104;-37
2022/12/22 11:32:00;;;;;;;18.20;11.13;;;;;;;32.14;57.38;100722.97;5056553;28;69496;-37
2022/12/22 11:34:56;;;;;;;19.83;10.98;;;;;;;32.08;57.24;100734.78;5049928;28;66009;-37
2022/12/22 11:37:48;;;;;;;16.67;11.05;;;;;;;32.14;57.46;100728.41;5052047;28;69626;-37
2022/12/22 11:40:45;;;;;;;12.38;11.07;;;;;;;32.09;57.29;100737.22;5058310;28;66539;-36
2022/12/22 11:43:32;;;;;;;17.10;11.13;;;;;;;32.09;57.11;100737.22;5058052;28;70247;-38
2022/12/22 11:46:15;;;;;;;19.33;11.20;;;;;;;32.13;57.11;100740.34;5051732;28;66079;-36
2022/12/22 11:49:08;;;;;;;20.42;11.77;;;;;;;32.08;56.92;100745.63;5052289;28;69563;-37
2022/12/22 11:51:42;;;;;;;19.38;11.23;;;;;;;32.07;57.41;100743.94;5048876;28;66187;-38
2022/12/22 11:54:43;;;;;;;23.65;11.90;;;;;;;31.99;56.69;100748.66;5054569;28;70071;-36
2022/12/22 11:57:15;;;;;;;16.92;12.10;;;;;;;32.07;57.07;100749.38;5054417;28;66375;-38
2022/12/22 12:00:01;;;;;;;16.07;11.90;;;;;;;32.00;57.34;100754.91;5054643;28;69832;-38
2022/12/22 12:03:21;;;;;;;23.05;12.30;;;;;;;31.97;56.27;100753.50;5052690;28;66361;-36
2022/12/22 12:06:22;;;;;;;23.17;12.68;;;;;;;31.67;56.82;100706.53;5054589;28;69828;-36
2022/12/22 12:09:04;;;;;;;20.27;12.95;;;;;;;31.97;55.95;100761.63;5052518;28;66229;-37
2022/12/22 12:11:48;;;;;;;18.05;13.30;;;;;;;31.97;57.09;100774.38;5051612;28;70136;-39
2022/12/22 12:14:24;;;;;;;22.30;13.52;;;;;;;32.00;56.81;100774.72;5059394;28;66326;-36
2022/12/22 12:16:56;;;;;;;27.45;12.95;;;;;;;31.99;56.78;100780.41;5054801;28;69680;-38
2022/12/22 12:19:36;;;;;;;29.70;13.85;;;;;;;31.96;57.18;100789.81;5053472;28;64939;-36
2022/12/22 12:22:17;;;;;;;21.98;14.43;;;;;;;31.59;56.68;100743.78;5049692;28;70146;-37
2022/12/22 12:25:10;;;;;;;23.92;15.23;;;;;;;31.53;58.25;100749.25;5053944;28;66170;-39
2022/12/22 12:28:08;;;;;;;29.42;15.10;;;;;;;31.91;58.78;100813.25;5051247;28;70111;-37
2022/12/22 12:30:51;;;;;;;19.00;15.02;;;;;;;31.59;59.39;100770.88;5056089;28;66369;-38
2022/12/22 12:33:46;;;;;;;26.35;15.30;;;;;;;31.78;59.52;100833.22;5059983;28;69825;-37
2022/12/22 12:36:27;;;;;;;27.13;15.18;;;;;;;31.75;59.59;100812.78;5058039;28;66171;-38
2022/12/22 12:39:40;;;;;;;20.67;13.25;;;;;;;31.68;60.32;100827.47;5052468;28;69658;-37
2022/12/22 12:42:27;;;;;;;19.75;14.30;;;;;;;31.78;59.93;100827.78;5017316;28;65217;-41
2022/12/22 12:45:01;;;;;;;24.58;14.82;;;;;;;31.77;60.11;100842.41;5046665;28;69878;-37
2022/12/22 12:47:34;;;;;;;25.13;14.52;;;;;;;31.16;59.61;100739.22;5057498;28;66622;-37
2022/12/22 12:50:38;;;;;;;21.23;14.10;;;;;;;31.63;60.27;100846.34;5057229;28;70045;-36
2022/12/22 12:53:10;;;;;;;19.33;13.30;;;;;;;31.71;60.36;100837.91;5019515;28;66303;-37
2022/12/22 12:55:41;;;;;;;;;;;;;;;31.42;61.62;100845.72;5053932;28;69706;-36
2022/12/22 12:58:38;;;;;;;20.37;13.97;;;;;;;31.53;61.91;100841.44;5055804;28;66457;-39
2022/12/22 13:01:11;;;;;;;16.98;13.65;;;;;;;31.57;62.49;100851.63;5051903;28;70124;-37
2022/12/22 13:03:43;;;;;;;17.20;13.15;;;;;;;31.54;62.74;100849.34;5057204;28;65639;-39
2022/12/22 13:06:54;;;;;;;16.58;12.73;;;;;;;31.45;63.51;100842.56;5048683;28;69396;-37
2022/12/22 13:09:27;;;;;;;21.20;14.32;;;;;;;31.50;63.21;100848.13;5049343;28;66159;-38
2022/12/22 13:12:39;;;;;;;13.70;12.30;;;;;;;31.39;64.26;100852.41;5053612;28;69926;-38
2022/12/22 13:15:41;;;;;;;14.10;12.75;;;;;;;31.33;64.38;100850.56;5051340;28;66723;-39
2022/12/22 13:18:24;;;;;;;14.30;12.68;;;;;;;31.40;64.14;100853.28;5044975;28;69724;-38
2022/12/22 13:21:07;;;;;;;17.17;13.50;;;;;;;31.07;64.42;100802.09;5056803;28;66321;-37
2022/12/22 13:23:59;;;;;;;18.25;13.07;;;;;;;31.41;64.06;100871.19;5054947;28;69521;-38
2022/12/22 13:26:53;;;;;;;20.90;13.60;;;;;;;31.08;64.13;100811.84;5055282;28;66773;-38
2022/12/22 13:29:25;;;;;;;19.35;13.05;;;;;;;31.41;64.25;100865.75;5055196;28;69607;-42
2022/12/22 13:32:01;;;;;;;18.97;12.83;;;;;;;31.40;64.33;100869.53;5050690;28;66407;-35
2022/12/22 13:34:37;;;;;;;18.60;12.48;;;;;;;31.40;64.86;100872.25;5046745;28;68502;-38
2022/12/22 13:37:29;;;;;;;18.60;11.88;;;;;;;31.29;63.86;100872.94;5053785;28;65262;-34
2022/12/22 13:40:18;;;;;;;;;;;;;;;31.00;63.32;100888.81;5056610;28;70214;-36
2022/12/22 13:42:55;;;;;;;12.88;11.50;;;;;;;31.15;61.75;100894.75;5054664;28;66215;-36
2022/12/22 13:45:36;;;;;;;11.05;9.95;;;;;;;31.11;60.66;100903.53;5052847;28;70707;-36
2022/12/22 13:48:21;;;;;;;13.02;10.98;;;;;;;30.67;59.83;100853.84;5053853;28;65874;-38
2022/12/22 13:50:55;;;;;;;11.45;9.82;;;;;;;30.62;59.08;100840.97;5052270;28;69922;-37
2022/12/22 13:53:45;;;;;;;11.75;9.95;;;;;;;30.89;58.03;100901.19;5056471;28;66791;-35
2022/12/22 13:56:51;;;;;;;15.65;10.00;;;;;;;30.80;58.09;100912.53;5053898;28;69540;-39
2022/12/22 13:59:39;;;;;;;12.00;8.68;;;;;;;30.79;57.37;100908.97;5056882;28;66006;-37
2022/12/22 14:02:11;;;;;;;16.33;8.63;;;;;;;30.76;57.74;100903.13;5057106;28;70028;-36
2022/12/22 14:05:02;;;;;;;13.93;8.35;;;;;;;30.71;56.48;100910.06;5051227;28;65224;-40
2022/12/22 14:07:33;;;;;;;9.85;8.38;;;;;;;30.66;56.82;100898.22;5053997;28;69969;-40
2022/12/22 14:10:05;;;;;;;8.40;7.60;;;;;;;30.62;55.87;100908.66;5051145;28;66516;-39
2022/12/22 14:12:43;;;;;;;17.10;7.97;;;;;;;30.50;55.50;100888.72;5054475;28;69126;-40
2022/12/22 14:15:18;;;;;;;17.63;7.45;;;;;;;30.55;55.26;100905.16;5052164;28;66265;-40
2022/12/22 14:17:50;;;;;;;15.50;7.43;;;;;;;30.51;55.25;100901.22;5052021;28;70112;-38
2022/12/22 14:20:36;;;;;;;9.88;7.13;;;;;;;30.15;54.05;100858.53;5048997;28;65847;-38
2022/12/22 14:23:18;;;;;;;13.18;7.15;;;;;;;30.31;54.26;100881.56;5055278;28;69401;-39
2022/12/22 14:25:53;;;;;;;20.85;7.05;;;;;;;30.35;54.73;100893.63;5070451;27;66595;-39
2022/12/22 14:28:24;;;;;;;32.10;7.25;;;;;;;30.41;54.67;100903.56;5069299;27;69313;-37
2022/12/22 14:30:58;;;;;;;18.07;6.37;;;;;;;30.14;54.48;100863.06;5050916;28;65600;-41
2022/12/22 14:33:32;;;;;;;17.42;6.70;;;;;;;29.92;54.15;100834.69;5046164;28;69643;-37
2022/12/22 14:36:14;;;;;;;19.88;7.38;;;;;;;29.64;53.26;100800.69;5051192;28;65246;-41
2022/12/22 14:38:48;;;;;;;7.93;6.25;;;;;;;30.23;53.05;100913.25;5047565;28;69462;-40
2022/12/22 14:41:43;;;;;;;10.40;6.47;;;;;;;30.22;52.94;100925.09;5050106;28;67004;-36
2022/12/22 14:44:24;;;;;;;11.93;5.57;;;;;;;30.20;52.97;100920.91;5050312;28;69849;-39
2022/12/22 14:47:13;;;;;;;18.98;6.03;;;;;;;30.09;52.70;100919.72;5046827;28;65940;-39
2022/12/22 14:49:50;;;;;;;9.85;5.63;;;;;;;29.79;52.49;100866.16;5045313;28;70034;-38
2022/12/22 14:52:36;;;;;;;7.05;5.72;;;;;;;29.75;52.10;100867.59;5048553;28;66299;-39
2022/12/22 14:55:41;;;;;;;18.27;6.13;;;;;;;29.90;51.96;100915.22;5049436;28;70711;-38
2022/12/22 14:58:19;;;;;;;11.73;5.70;;;;;;;29.75;51.14;100889.22;5053799;28;65407;-40
2022/12/22 15:01:14;;;;;;;7.28;5.10;;;;;;;29.91;50.79;100919.56;5052360;28;70784;-39
2022/12/22 15:04:04;;;;;;;11.18;5.18;;;;;;;29.25;51.00;100809.72;5050564;28;65773;-41
2022/12/22 15:06:40;;;;;;;5.95;5.22;;;;;;;29.51;50.24;100852.91;5049721;28;70552;-40
2022/12/22 15:09:14;;;;;;;9.32;4.97;;;;;;;29.89;50.25;100913.53;5053699;28;66422;-38
2022/12/22 15:12:14;;;;;;;5.95;5.45;;;;;;;29.68;50.41;100888.44;5056632;28;69484;-39
2022/12/22 15:14:47;;;;;;;5.05;4.68;;;;;;;29.81;50.30;100910.03;5049932;28;65414;-41
2022/12/22 15:17:26;;;;;;;6.13;5.40;;;;;;;29.42;50.15;100851.47;5051474;28;70278;-40
2022/12/22 15:19:59;;;;;;;5.57;5.10;;;;;;;29.78;50.21;100915.88;5052660;28;66001;-40
2022/12/22 15:22:29;;;;;;;;;;;;;;;29.50;50.35;100928.78;5053286;28;68474;-38
2022/12/22 15:25:01;;;;;;;5.90;5.40;;;;;;;29.71;49.77;100915.03;5052970;28;65591;-40
2022/12/22 15:27:32;;;;;;;6.47;5.87;;;;;;;29.67;50.06;100912.97;5055204;28;69476;-38
2022/12/22 15:30:03;;;;;;;5.65;5.15;;;;;;;29.65;49.32;100924.00;5055565;28;65178;-38
2022/12/22 15:32:35;;;;;;;4.82;4.45;;;;;;;29.65;48.94;100915.91;5051252;28;69098;-41
2022/12/22 15:35:33;;;;;;;5.32;4.80;;;;;;;29.55;49.19;100918.16;5054834;28;66424;-39
2022/12/22 15:38:14;;;;;;;5.40;5.00;;;;;;;29.52;48.40;100910.47;5052029;28;70278;-39
2022/12/22 15:40:45;;;;;;;5.38;4.97;;;;;;;29.55;48.12;100901.94;5048792;28;66473;-39
2022/12/22 15:43:17;;;;;;;4.65;4.32;;;;;;;29.55;48.06;100907.34;5052326;28;69874;-40